• Join FlightAware (Why Join?)
  • Login
  • US Flag 
09:23AM EDT


 

Airport Tracker/Info


-or-


 

Live Flight TrackerFlight Track Log ✈ CES2498 ✈ 03-Sep-2013 ✈ ZPJH / JHG - ZPPP / KMG

Flight Track Log - Related Links

Times and Time Zones

All times are in EDT time to prevent confusion due to time zone crossing. See the CES2498 flight status page for this flight to view local times or setup timezone preferences in your user account.

Time Position Orientation Groundspeed Altitude Reporting Facility
EDT Latitude Longitude Course Direction KTS MPH feet Rate Location/Type
07:10AM 23.3162 101.6755 32° Northeast  Level Estimated
07:11AM 23.4055 101.7372 32° Northeast  Level Estimated
07:12AM 23.4947 101.7990 32° Northeast  Level Estimated
07:13AM 23.5840 101.8608 32° Northeast  Level Estimated
07:14AM 23.6732 101.9228 32° Northeast  Level Estimated
07:15AM 23.7624 101.9848 32° Northeast  Level Estimated
07:16AM 23.8516 102.0469 33° Northeast  Level Estimated
07:17AM 23.9407 102.1092 33° Northeast  Level Estimated
07:18AM 24.0299 102.1714 33° Northeast  Level Estimated
07:19AM 24.1190 102.2338 33° Northeast  Level Estimated
07:20AM 24.2080 102.2963 33° Northeast  Level Estimated
07:21AM 24.2971 102.3589 33° Northeast  Level Estimated
07:22AM 24.3861 102.4215 33° Northeast  Level Estimated
07:23AM 24.4751 102.4842 33° Northeast  Level Estimated
07:24AM 24.5641 102.5471 33° Northeast  Level Estimated
07:25AM 24.6530 102.6100 33° Northeast  Level Estimated
07:26AM 24.7419 102.6730 33° Northeast  Level Estimated
07:27AM 24.8308 102.7361 33° Northeast  Level Estimated
07:28AM 24.9312 102.8074 33° Northeast  Level Estimated
07:29AM 25.0314 102.8789 33° Northeast  Level Estimated
07:30AM 25.1019 102.9292 33° Northeast  Level Estimated
07:31AM 25.1019 102.9292 326° Northwest  Level Estimated
07:32AM 25.1019 102.9292 326° Northwest  Level Estimated
07:33AM 25.1019 102.9292 326° Northwest  Level Estimated
07:34AM 25.1019 102.9292 326° Northwest  Level Estimated
07:35AM 25.1019 102.9292 326° Northwest  Level Estimated
07:36AM 25.1019 102.9292 326° Northwest  Level Estimated
07:37AM 25.1019 102.9292 326° Northwest  Level Estimated
07:38AM 25.1019 102.9292 326° Northwest  Level Estimated
07:39AM 25.1019 102.9292 326° Northwest  Level Estimated
07:40AM 25.1019 102.9292 326° Northwest  Level Estimated
07:41AM 25.1019 102.9292 326° Northwest  Level Estimated
07:42AM 25.1019 102.9292 326° Northwest  Level Estimated